sensor_id;sensor_type;location;lat;lon;timestamp;pressure;altitude;pressure_sealevel;temperature;humidity
10700;BME280;5401;41.986;21.452;2023-09-30T00:02:07;98717.72;;;19.45;43.22
10700;BME280;5401;41.986;21.452;2023-09-30T00:04:34;98726.09;;;19.38;43.46
10700;BME280;5401;41.986;21.452;2023-09-30T00:07:02;98718.72;;;19.34;43.62
10700;BME280;5401;41.986;21.452;2023-09-30T00:09:35;98723.03;;;19.30;43.62
10700;BME280;5401;41.986;21.452;2023-09-30T00:12:02;98725.44;;;19.27;43.71
10700;BME280;5401;41.986;21.452;2023-09-30T00:14:30;98724.31;;;19.23;43.51
10700;BME280;5401;41.986;21.452;2023-09-30T00:16:58;98716.13;;;19.18;43.68
10700;BME280;5401;41.986;21.452;2023-09-30T00:19:26;98716.38;;;19.16;43.35
10700;BME280;5401;41.986;21.452;2023-09-30T00:21:53;98717.72;;;19.14;43.95
10700;BME280;5401;41.986;21.452;2023-09-30T00:24:20;98725.88;;;19.14;44.29
10700;BME280;5401;41.986;21.452;2023-09-30T00:26:49;98708.72;;;19.08;44.00
10700;BME280;5401;41.986;21.452;2023-09-30T00:29:17;98715.81;;;19.14;44.50
10700;BME280;5401;41.986;21.452;2023-09-30T00:31:45;98725.09;;;19.18;44.76
10700;BME280;5401;41.986;21.452;2023-09-30T00:34:12;98722.34;;;19.13;44.27
10700;BME280;5401;41.986;21.452;2023-09-30T00:36:39;98725.00;;;19.08;44.91
10700;BME280;5401;41.986;21.452;2023-09-30T00:39:08;98724.19;;;19.08;44.67
10700;BME280;5401;41.986;21.452;2023-09-30T00:41:38;98718.66;;;18.98;44.83
10700;BME280;5401;41.986;21.452;2023-09-30T00:44:07;98729.63;;;19.08;44.76
10700;BME280;5401;41.986;21.452;2023-09-30T00:46:36;98728.50;;;19.04;45.19
10700;BME280;5401;41.986;21.452;2023-09-30T00:49:04;98726.88;;;19.03;45.33
10700;BME280;5401;41.986;21.452;2023-09-30T00:51:32;98729.13;;;19.11;44.68
10700;BME280;5401;41.986;21.452;2023-09-30T00:54:00;98730.22;;;19.15;45.13
10700;BME280;5401;41.986;21.452;2023-09-30T00:56:29;98727.31;;;19.21;45.00
10700;BME280;5401;41.986;21.452;2023-09-30T00:58:58;98739.19;;;19.15;45.01
10700;BME280;5401;41.986;21.452;2023-09-30T01:01:27;98734.22;;;19.07;45.09
10700;BME280;5401;41.986;21.452;2023-09-30T01:03:55;98727.03;;;18.96;45.30
10700;BME280;5401;41.986;21.452;2023-09-30T01:06:24;98740.50;;;18.87;45.60
10700;BME280;5401;41.986;21.452;2023-09-30T01:08:52;98734.69;;;18.78;45.43
10700;BME280;5401;41.986;21.452;2023-09-30T01:11:21;98726.41;;;18.63;46.10
10700;BME280;5401;41.986;21.452;2023-09-30T01:13:48;98736.09;;;18.59;45.45
10700;BME280;5401;41.986;21.452;2023-09-30T01:16:16;98730.31;;;18.51;46.47
10700;BME280;5401;41.986;21.452;2023-09-30T01:18:45;98730.84;;;18.48;46.23
10700;BME280;5401;41.986;21.452;2023-09-30T01:21:12;98731.00;;;18.42;46.22
10700;BME280;5401;41.986;21.452;2023-09-30T01:23:42;98730.88;;;18.32;46.72
10700;BME280;5401;41.986;21.452;2023-09-30T01:26:12;98741.09;;;18.25;47.01
10700;BME280;5401;41.986;21.452;2023-09-30T01:28:41;98735.94;;;18.23;47.02
10700;BME280;5401;41.986;21.452;2023-09-30T01:31:08;98737.44;;;18.36;47.20
10700;BME280;5401;41.986;21.452;2023-09-30T01:33:36;98736.72;;;18.40;46.26
10700;BME280;5401;41.986;21.452;2023-09-30T01:36:04;98738.09;;;18.43;46.71
10700;BME280;5401;41.986;21.452;2023-09-30T01:38:32;98737.13;;;18.54;47.10
10700;BME280;5401;41.986;21.452;2023-09-30T01:41:01;98734.53;;;18.63;46.85
10700;BME280;5401;41.986;21.452;2023-09-30T01:43:28;98740.63;;;18.75;46.22
10700;BME280;5401;41.986;21.452;2023-09-30T01:45:56;98742.59;;;18.80;46.34
10700;BME280;5401;41.986;21.452;2023-09-30T01:48:24;98738.53;;;18.82;46.69
10700;BME280;5401;41.986;21.452;2023-09-30T01:50:51;98737.72;;;18.82;46.08
10700;BME280;5401;41.986;21.452;2023-09-30T01:53:19;98734.13;;;18.76;46.37
10700;BME280;5401;41.986;21.452;2023-09-30T01:55:46;98738.44;;;18.72;46.41
10700;BME280;5401;41.986;21.452;2023-09-30T01:58:15;98731.00;;;18.63;46.45
10700;BME280;5401;41.986;21.452;2023-09-30T02:00:43;98748.53;;;18.56;46.55
10700;BME280;5401;41.986;21.452;2023-09-30T02:03:11;98739.78;;;18.49;46.51
10700;BME280;5401;41.986;21.452;2023-09-30T02:05:39;98721.13;;;18.31;46.51
10700;BME280;5401;41.986;21.452;2023-09-30T02:08:06;98740.41;;;18.34;46.88
10700;BME280;5401;41.986;21.452;2023-09-30T02:10:34;98731.97;;;18.31;47.24
10700;BME280;5401;41.986;21.452;2023-09-30T02:13:01;98738.28;;;18.36;46.62
10700;BME280;5401;41.986;21.452;2023-09-30T02:15:35;98752.28;;;18.28;47.52
10700;BME280;5401;41.986;21.452;2023-09-30T02:18:06;98748.03;;;18.16;47.09
10700;BME280;5401;41.986;21.452;2023-09-30T02:20:35;98745.50;;;18.10;47.10
10700;BME280;5401;41.986;21.452;2023-09-30T02:23:05;98746.16;;;18.17;47.76
10700;BME280;5401;41.986;21.452;2023-09-30T02:25:33;98744.63;;;18.25;47.39
10700;BME280;5401;41.986;21.452;2023-09-30T02:28:00;98743.31;;;18.28;47.46
10700;BME280;5401;41.986;21.452;2023-09-30T02:30:28;98740.63;;;18.28;47.66
10700;BME280;5401;41.986;21.452;2023-09-30T02:32:56;98745.47;;;18.26;47.40
10700;BME280;5401;41.986;21.452;2023-09-30T02:35:24;98743.00;;;18.24;48.17
10700;BME280;5401;41.986;21.452;2023-09-30T02:37:52;98744.50;;;18.16;48.12
10700;BME280;5401;41.986;21.452;2023-09-30T02:40:20;98702.31;;;17.87;47.57
10700;BME280;5401;41.986;21.452;2023-09-30T02:42:51;98743.66;;;18.15;47.78
10700;BME280;5401;41.986;21.452;2023-09-30T02:45:18;98749.84;;;18.11;47.87
10700;BME280;5401;41.986;21.452;2023-09-30T02:47:46;98746.81;;;18.07;48.01
10700;BME280;5401;41.986;21.452;2023-09-30T02:50:15;98740.63;;;18.12;47.63
10700;BME280;5401;41.986;21.452;2023-09-30T02:52:43;98749.63;;;18.12;47.79
10700;BME280;5401;41.986;21.452;2023-09-30T02:55:11;98743.22;;;18.02;47.61
10700;BME280;5401;41.986;21.452;2023-09-30T02:57:39;98746.97;;;18.01;47.93
10700;BME280;5401;41.986;21.452;2023-09-30T03:00:09;98750.25;;;18.03;47.63
10700;BME280;5401;41.986;21.452;2023-09-30T03:02:46;98752.91;;;17.98;48.04
10700;BME280;5401;41.986;21.452;2023-09-30T03:05:15;98744.91;;;17.91;47.80
10700;BME280;5401;41.986;21.452;2023-09-30T03:07:43;98747.38;;;17.93;48.09
10700;BME280;5401;41.986;21.452;2023-09-30T03:10:10;98744.81;;;18.03;48.86
10700;BME280;5401;41.986;21.452;2023-09-30T03:12:39;98750.38;;;18.08;48.10
10700;BME280;5401;41.986;21.452;2023-09-30T03:15:07;98748.75;;;18.12;48.66
10700;BME280;5401;41.986;21.452;2023-09-30T03:17:35;98751.75;;;18.10;48.42
10700;BME280;5401;41.986;21.452;2023-09-30T03:20:04;98756.00;;;18.06;48.64
10700;BME280;5401;41.986;21.452;2023-09-30T03:22:40;98748.88;;;18.00;48.04
10700;BME280;5401;41.986;21.452;2023-09-30T03:25:09;98745.16;;;18.06;48.45
10700;BME280;5401;41.986;21.452;2023-09-30T03:27:37;98752.56;;;18.11;47.96
10700;BME280;5401;41.986;21.452;2023-09-30T03:30:06;98763.31;;;18.06;48.36
10700;BME280;5401;41.986;21.452;2023-09-30T03:32:34;98759.13;;;17.98;47.95
10700;BME280;5401;41.986;21.452;2023-09-30T03:35:02;98761.34;;;17.85;48.18
10700;BME280;5401;41.986;21.452;2023-09-30T03:37:32;98755.38;;;17.67;48.71
10700;BME280;5401;41.986;21.452;2023-09-30T03:40:02;98761.53;;;17.79;49.02
10700;BME280;5401;41.986;21.452;2023-09-30T03:42:38;98760.78;;;17.83;48.49
10700;BME280;5401;41.986;21.452;2023-09-30T03:45:06;98758.34;;;17.82;49.19
10700;BME280;5401;41.986;21.452;2023-09-30T03:47:35;98758.66;;;17.85;48.43
10700;BME280;5401;41.986;21.452;2023-09-30T03:50:04;98770.16;;;17.92;49.20
10700;BME280;5401;41.986;21.452;2023-09-30T03:52:37;98761.19;;;17.91;48.66
10700;BME280;5401;41.986;21.452;2023-09-30T03:55:06;98761.34;;;17.85;48.92
10700;BME280;5401;41.986;21.452;2023-09-30T03:57:35;98757.44;;;17.76;48.84
10700;BME280;5401;41.986;21.452;2023-09-30T04:00:03;98756.28;;;17.72;49.20
10700;BME280;5401;41.986;21.452;2023-09-30T04:02:32;98752.94;;;17.65;49.38
10700;BME280;5401;41.986;21.452;2023-09-30T04:05:00;98753.34;;;17.57;49.73
10700;BME280;5401;41.986;21.452;2023-09-30T04:07:30;98759.41;;;17.48;49.14
10700;BME280;5401;41.986;21.452;2023-09-30T04:09:58;98767.53;;;17.48;49.48
10700;BME280;5401;41.986;21.452;2023-09-30T04:12:28;98766.78;;;17.52;49.18
10700;BME280;5401;41.986;21.452;2023-09-30T04:14:56;98764.09;;;17.52;48.67
10700;BME280;5401;41.986;21.452;2023-09-30T04:17:24;98772.03;;;17.59;49.30
10700;BME280;5401;41.986;21.452;2023-09-30T04:19:53;98770.06;;;17.54;49.44
10700;BME280;5401;41.986;21.452;2023-09-30T04:22:20;98764.09;;;17.52;49.44
10700;BME280;5401;41.986;21.452;2023-09-30T04:24:48;98772.78;;;17.54;49.36
10700;BME280;5401;41.986;21.452;2023-09-30T04:27:16;98781.47;;;17.56;49.27
10700;BME280;5401;41.986;21.452;2023-09-30T04:29:45;98780.16;;;17.59;48.69
10700;BME280;5401;41.986;21.452;2023-09-30T04:32:12;98776.75;;;17.63;49.21
10700;BME280;5401;41.986;21.452;2023-09-30T04:34:40;98778.53;;;17.58;49.03
10700;BME280;5401;41.986;21.452;2023-09-30T04:37:07;98778.44;;;17.53;49.37
10700;BME280;5401;41.986;21.452;2023-09-30T04:39:35;98772.63;;;17.45;50.03
10700;BME280;5401;41.986;21.452;2023-09-30T04:42:03;98771.47;;;17.41;50.13
10700;BME280;5401;41.986;21.452;2023-09-30T04:44:31;98776.97;;;17.46;49.94
10700;BME280;5401;41.986;21.452;2023-09-30T04:47:00;98778.53;;;17.74;49.96
10700;BME280;5401;41.986;21.452;2023-09-30T04:49:27;98776.78;;;18.01;49.17
10700;BME280;5401;41.986;21.452;2023-09-30T04:51:54;98777.66;;;18.23;48.48
10700;BME280;5401;41.986;21.452;2023-09-30T04:54:22;98781.66;;;18.36;48.67
10700;BME280;5401;41.986;21.452;2023-09-30T04:56:49;98787.03;;;18.53;48.70
10700;BME280;5401;41.986;21.452;2023-09-30T04:59:17;98785.88;;;18.91;47.89
10700;BME280;5401;41.986;21.452;2023-09-30T05:01:44;98794.44;;;19.30;47.18
10700;BME280;5401;41.986;21.452;2023-09-30T05:04:13;98795.16;;;19.47;46.85
10700;BME280;5401;41.986;21.452;2023-09-30T05:06:41;98793.47;;;19.72;47.05
10700;BME280;5401;41.986;21.452;2023-09-30T05:09:08;98793.66;;;19.92;46.37
10700;BME280;5401;41.986;21.452;2023-09-30T05:11:36;98794.16;;;20.25;46.01
10700;BME280;5401;41.986;21.452;2023-09-30T05:14:03;98799.31;;;20.68;45.73
10700;BME280;5401;41.986;21.452;2023-09-30T05:16:31;98802.47;;;21.10;45.08
10700;BME280;5401;41.986;21.452;2023-09-30T05:18:58;98798.47;;;21.43;44.97
10700;BME280;5401;41.986;21.452;2023-09-30T05:21:27;98800.69;;;21.90;43.96
10700;BME280;5401;41.986;21.452;2023-09-30T05:23:55;98800.97;;;22.28;43.49
10700;BME280;5401;41.986;21.452;2023-09-30T05:26:22;98798.34;;;22.81;43.02
10700;BME280;5401;41.986;21.452;2023-09-30T05:28:50;98797.25;;;23.34;41.91
10700;BME280;5401;41.986;21.452;2023-09-30T05:31:17;98808.94;;;23.88;41.21
10700;BME280;5401;41.986;21.452;2023-09-30T05:33:46;98809.28;;;24.42;40.63
10700;BME280;5401;41.986;21.452;2023-09-30T05:36:13;98804.75;;;25.03;39.59
10700;BME280;5401;41.986;21.452;2023-09-30T05:38:42;98819.41;;;25.71;39.09
10700;BME280;5401;41.986;21.452;2023-09-30T05:41:09;98822.06;;;25.94;38.11
10700;BME280;5401;41.986;21.452;2023-09-30T05:43:37;98817.44;;;26.08;37.99
10700;BME280;5401;41.986;21.452;2023-09-30T05:46:06;98825.38;;;26.28;37.74
10700;BME280;5401;41.986;21.452;2023-09-30T05:48:34;98829.63;;;26.79;36.83
10700;BME280;5401;41.986;21.452;2023-09-30T05:51:01;98836.53;;;27.43;36.04
10700;BME280;5401;41.986;21.452;2023-09-30T05:53:29;98832.94;;;28.04;35.40
10700;BME280;5401;41.986;21.452;2023-09-30T05:56:00;98832.59;;;28.49;34.73
10700;BME280;5401;41.986;21.452;2023-09-30T05:58:27;98841.25;;;28.86;34.07
10700;BME280;5401;41.986;21.452;2023-09-30T06:00:55;98834.28;;;29.27;33.42
10700;BME280;5401;41.986;21.452;2023-09-30T06:03:22;98839.47;;;29.83;32.91
10700;BME280;5401;41.986;21.452;2023-09-30T06:05:50;98838.47;;;29.96;32.15
10700;BME280;5401;41.986;21.452;2023-09-30T06:08:17;98844.00;;;30.38;32.33
10700;BME280;5401;41.986;21.452;2023-09-30T06:10:44;98811.56;;;30.64;31.23
10700;BME280;5401;41.986;21.452;2023-09-30T06:13:14;98848.56;;;30.96;31.35
10700;BME280;5401;41.986;21.452;2023-09-30T06:15:43;98841.09;;;30.97;30.97
10700;BME280;5401;41.986;21.452;2023-09-30T06:18:12;98848.56;;;30.96;30.85
10700;BME280;5401;41.986;21.452;2023-09-30T06:20:41;98846.81;;;30.75;30.64
10700;BME280;5401;41.986;21.452;2023-09-30T06:23:08;98854.06;;;30.43;31.35
10700;BME280;5401;41.986;21.452;2023-09-30T06:25:37;98857.84;;;30.30;31.57
10700;BME280;5401;41.986;21.452;2023-09-30T06:28:05;98861.06;;;29.98;31.83
10700;BME280;5401;41.986;21.452;2023-09-30T06:30:35;98863.78;;;29.73;31.82
10700;BME280;5401;41.986;21.452;2023-09-30T06:33:03;98863.66;;;29.78;31.98
10700;BME280;5401;41.986;21.452;2023-09-30T06:35:32;98852.78;;;29.98;31.34
10700;BME280;5401;41.986;21.452;2023-09-30T06:38:03;98863.66;;;29.86;31.76
10700;BME280;5401;41.986;21.452;2023-09-30T06:40:32;98860.13;;;29.39;32.06
10700;BME280;5401;41.986;21.452;2023-09-30T06:42:59;98866.25;;;29.19;32.28
10700;BME280;5401;41.986;21.452;2023-09-30T06:45:27;98862.34;;;28.90;32.70
10700;BME280;5401;41.986;21.452;2023-09-30T06:47:57;98859.91;;;28.89;32.84
10700;BME280;5401;41.986;21.452;2023-09-30T06:50:24;98859.28;;;28.92;33.01
10700;BME280;5401;41.986;21.452;2023-09-30T06:52:52;98856.91;;;29.07;33.12
10700;BME280;5401;41.986;21.452;2023-09-30T06:55:19;98853.09;;;29.25;32.78
10700;BME280;5401;41.986;21.452;2023-09-30T06:57:46;98847.75;;;29.28;33.02
10700;BME280;5401;41.986;21.452;2023-09-30T07:00:14;98848.47;;;29.59;32.92
10700;BME280;5401;41.986;21.452;2023-09-30T07:02:42;98846.41;;;29.81;32.38
10700;BME280;5401;41.986;21.452;2023-09-30T07:05:12;98849.66;;;29.83;32.53
10700;BME280;5401;41.986;21.452;2023-09-30T07:07:41;98846.28;;;29.86;32.55
10700;BME280;5401;41.986;21.452;2023-09-30T07:10:09;98848.22;;;29.94;32.24
10700;BME280;5401;41.986;21.452;2023-09-30T07:12:37;98862.19;;;29.97;32.48
10700;BME280;5401;41.986;21.452;2023-09-30T07:15:06;98851.28;;;30.09;32.35
10700;BME280;5401;41.986;21.452;2023-09-30T07:17:34;98845.63;;;30.31;32.69
10700;BME280;5401;41.986;21.452;2023-09-30T07:20:03;98852.06;;;30.60;31.99
10700;BME280;5401;41.986;21.452;2023-09-30T07:22:33;98853.50;;;30.83;32.23
10700;BME280;5401;41.986;21.452;2023-09-30T07:25:01;98861.59;;;30.96;32.03
10700;BME280;5401;41.986;21.452;2023-09-30T07:27:29;98861.91;;;31.03;31.50
10700;BME280;5401;41.986;21.452;2023-09-30T07:29:57;98864.88;;;31.26;30.90
10700;BME280;5401;41.986;21.452;2023-09-30T07:32:25;98864.41;;;31.33;31.66
10700;BME280;5401;41.986;21.452;2023-09-30T07:34:52;98866.69;;;31.31;30.79
10700;BME280;5401;41.986;21.452;2023-09-30T07:37:20;98865.84;;;31.30;30.72
10700;BME280;5401;41.986;21.452;2023-09-30T07:39:48;98857.75;;;31.17;30.93
10700;BME280;5401;41.986;21.452;2023-09-30T07:42:16;98861.81;;;31.20;30.39
10700;BME280;5401;41.986;21.452;2023-09-30T07:44:44;98865.84;;;30.93;30.51
10700;BME280;5401;41.986;21.452;2023-09-30T07:47:11;98861.19;;;30.60;30.41
10700;BME280;5401;41.986;21.452;2023-09-30T07:49:38;98862.38;;;30.34;30.84
10700;BME280;5401;41.986;21.452;2023-09-30T07:52:06;98858.13;;;30.03;31.33
10700;BME280;5401;41.986;21.452;2023-09-30T07:54:33;98845.88;;;29.54;31.73
10700;BME280;5401;41.986;21.452;2023-09-30T07:57:02;98857.91;;;29.58;31.80
10700;BME280;5401;41.986;21.452;2023-09-30T07:59:30;98855.44;;;29.56;32.12
10700;BME280;5401;41.986;21.452;2023-09-30T08:01:59;98844.88;;;29.50;31.83
10700;BME280;5401;41.986;21.452;2023-09-30T08:04:27;98853.34;;;29.45;31.58
10700;BME280;5401;41.986;21.452;2023-09-30T08:06:55;98838.88;;;29.48;32.01
10700;BME280;5401;41.986;21.452;2023-09-30T08:09:23;98841.16;;;29.63;31.77
10700;BME280;5401;41.986;21.452;2023-09-30T08:11:53;98807.22;;;29.54;31.75
10700;BME280;5401;41.986;21.452;2023-09-30T08:14:21;98834.75;;;29.76;31.78
10700;BME280;5401;41.986;21.452;2023-09-30T08:16:49;98831.66;;;29.85;31.88
10700;BME280;5401;41.986;21.452;2023-09-30T08:19:17;98829.03;;;29.97;31.91
10700;BME280;5401;41.986;21.452;2023-09-30T08:21:46;98827.09;;;29.98;31.46
10700;BME280;5401;41.986;21.452;2023-09-30T08:24:15;98833.25;;;29.95;31.39
10700;BME280;5401;41.986;21.452;2023-09-30T08:26:43;98832.16;;;29.87;31.78
10700;BME280;5401;41.986;21.452;2023-09-30T08:29:10;98828.56;;;29.87;31.95
10700;BME280;5401;41.986;21.452;2023-09-30T08:31:39;98829.38;;;29.96;31.30
10700;BME280;5401;41.986;21.452;2023-09-30T08:34:07;98825.63;;;30.17;31.48
10700;BME280;5401;41.986;21.452;2023-09-30T08:36:40;98833.91;;;30.17;31.35
10700;BME280;5401;41.986;21.452;2023-09-30T08:39:09;98825.00;;;30.28;31.26
10700;BME280;5401;41.986;21.452;2023-09-30T08:41:38;98824.13;;;30.19;31.00
10700;BME280;5401;41.986;21.452;2023-09-30T08:44:06;98818.50;;;30.24;31.61
10700;BME280;5401;41.986;21.452;2023-09-30T08:46:34;98817.66;;;30.32;31.42
10700;BME280;5401;41.986;21.452;2023-09-30T08:49:04;98811.00;;;30.33;30.70
10700;BME280;5401;41.986;21.452;2023-09-30T08:51:32;98813.56;;;30.47;30.41
10700;BME280;5401;41.986;21.452;2023-09-30T08:54:00;98807.56;;;30.45;30.73
10700;BME280;5401;41.986;21.452;2023-09-30T08:56:30;98805.09;;;30.52;30.71
10700;BME280;5401;41.986;21.452;2023-09-30T08:59:01;98797.38;;;30.74;30.35
10700;BME280;5401;41.986;21.452;2023-09-30T09:01:30;98791.72;;;30.79;30.33
10700;BME280;5401;41.986;21.452;2023-09-30T09:03:58;98790.34;;;30.76;29.98
10700;BME280;5401;41.986;21.452;2023-09-30T09:06:26;98787.81;;;30.63;29.92
10700;BME280;5401;41.986;21.452;2023-09-30T09:08:54;98792.19;;;30.81;29.98
10700;BME280;5401;41.986;21.452;2023-09-30T09:11:40;98785.28;;;30.95;29.47
10700;BME280;5401;41.986;21.452;2023-09-30T09:14:07;98785.88;;;31.09;30.01
10700;BME280;5401;41.986;21.452;2023-09-30T09:16:34;98777.88;;;31.07;29.45
10700;BME280;5401;41.986;21.452;2023-09-30T09:19:13;98787.31;;;31.06;29.89
10700;BME280;5401;41.986;21.452;2023-09-30T09:21:56;98777.34;;;31.14;29.58
10700;BME280;5401;41.986;21.452;2023-09-30T09:24:27;98778.72;;;31.28;29.55
10700;BME280;5401;41.986;21.452;2023-09-30T09:27:04;98768.81;;;31.27;29.37
10700;BME280;5401;41.986;21.452;2023-09-30T09:29:32;98762.78;;;31.33;28.90
10700;BME280;5401;41.986;21.452;2023-09-30T09:32:07;98759.69;;;31.55;28.38
10700;BME280;5401;41.986;21.452;2023-09-30T09:34:35;98763.66;;;31.66;28.64
10700;BME280;5401;41.986;21.452;2023-09-30T09:37:15;98760.13;;;31.77;28.08
10700;BME280;5401;41.986;21.452;2023-09-30T09:39:53;98758.00;;;31.83;27.95
10700;BME280;5401;41.986;21.452;2023-09-30T09:42:27;98756.03;;;31.63;28.22
10700;BME280;5401;41.986;21.452;2023-09-30T09:44:56;98745.38;;;31.53;28.17
10700;BME280;5401;41.986;21.452;2023-09-30T09:47:24;98746.78;;;31.59;28.72
10700;BME280;5401;41.986;21.452;2023-09-30T09:49:53;98744.69;;;31.76;28.06
10700;BME280;5401;41.986;21.452;2023-09-30T09:52:23;98737.53;;;31.96;28.21
10700;BME280;5401;41.986;21.452;2023-09-30T09:54:51;98742.34;;;32.19;28.16
10700;BME280;5401;41.986;21.452;2023-09-30T09:57:19;98732.06;;;32.19;27.35
10700;BME280;5401;41.986;21.452;2023-09-30T09:59:47;98737.13;;;32.17;27.87
10700;BME280;5401;41.986;21.452;2023-09-30T10:02:16;98725.94;;;32.26;27.43
10700;BME280;5401;41.986;21.452;2023-09-30T10:04:44;98726.84;;;32.38;27.29
10700;BME280;5401;41.986;21.452;2023-09-30T10:07:16;98725.81;;;32.54;27.24
10700;BME280;5401;41.986;21.452;2023-09-30T10:09:50;98727.31;;;32.64;26.83
10700;BME280;5401;41.986;21.452;2023-09-30T10:12:19;98719.72;;;32.72;26.80
10700;BME280;5401;41.986;21.452;2023-09-30T10:14:47;98698.31;;;32.73;26.70
10700;BME280;5401;41.986;21.452;2023-09-30T10:17:14;98711.75;;;32.95;26.53
10700;BME280;5401;41.986;21.452;2023-09-30T10:20:03;98705.16;;;32.87;26.67
10700;BME280;5401;41.986;21.452;2023-09-30T10:22:33;98705.50;;;33.09;26.37
10700;BME280;5401;41.986;21.452;2023-09-30T10:25:34;98700.91;;;33.52;26.59
10700;BME280;5401;41.986;21.452;2023-09-30T10:28:35;98708.28;;;33.99;25.91
10700;BME280;5401;41.986;21.452;2023-09-30T10:31:11;98700.78;;;34.42;25.58
10700;BME280;5401;41.986;21.452;2023-09-30T10:34:17;98693.06;;;34.66;25.33
10700;BME280;5401;41.986;21.452;2023-09-30T10:36:46;98680.78;;;34.83;25.37
10700;BME280;5401;41.986;21.452;2023-09-30T10:39:14;98694.03;;;34.89;25.22
10700;BME280;5401;41.986;21.452;2023-09-30T10:41:51;98684.84;;;35.04;25.18
10700;BME280;5401;41.986;21.452;2023-09-30T10:44:42;98683.56;;;35.32;25.14
10700;BME280;5401;41.986;21.452;2023-09-30T10:47:36;98674.19;;;35.59;24.51
10700;BME280;5401;41.986;21.452;2023-09-30T10:53:10;98677.56;;;35.67;24.81
10700;BME280;5401;41.986;21.452;2023-09-30T10:55:38;98672.91;;;35.71;24.63
10700;BME280;5401;41.986;21.452;2023-09-30T10:58:09;98663.81;;;35.74;24.58
10700;BME280;5401;41.986;21.452;2023-09-30T11:00:37;98668.63;;;35.77;24.22
10700;BME280;5401;41.986;21.452;2023-09-30T11:03:11;98657.78;;;35.72;24.22
10700;BME280;5401;41.986;21.452;2023-09-30T11:05:39;98657.69;;;35.50;24.11
10700;BME280;5401;41.986;21.452;2023-09-30T11:08:07;98661.72;;;35.34;24.52
10700;BME280;5401;41.986;21.452;2023-09-30T11:10:36;98657.06;;;35.23;24.61
10700;BME280;5401;41.986;21.452;2023-09-30T11:13:03;98647.75;;;35.00;24.74
10700;BME280;5401;41.986;21.452;2023-09-30T11:15:32;98649.41;;;35.01;24.36
10700;BME280;5401;41.986;21.452;2023-09-30T11:18:13;98641.09;;;35.04;24.00
10700;BME280;5401;41.986;21.452;2023-09-30T11:20:41;98638.75;;;35.06;24.55
10700;BME280;5401;41.986;21.452;2023-09-30T11:23:09;98644.84;;;35.27;24.39
10700;BME280;5401;41.986;21.452;2023-09-30T11:25:37;98637.66;;;35.45;24.00
10700;BME280;5401;41.986;21.452;2023-09-30T11:28:15;98631.72;;;35.46;24.12
10700;BME280;5401;41.986;21.452;2023-09-30T11:30:58;98629.84;;;35.69;24.11
10700;BME280;5401;41.986;21.452;2023-09-30T11:33:26;98623.50;;;35.91;23.32
10700;BME280;5401;41.986;21.452;2023-09-30T11:35:57;98629.56;;;36.15;23.28
10700;BME280;5401;41.986;21.452;2023-09-30T11:38:27;98614.66;;;36.26;23.68
10700;BME280;5401;41.986;21.452;2023-09-30T11:40:58;98613.09;;;36.29;23.08
10700;BME280;5401;41.986;21.452;2023-09-30T11:43:26;98616.75;;;36.33;23.00
10700;BME280;5401;41.986;21.452;2023-09-30T11:46:05;98593.19;;;36.30;22.99
10700;BME280;5401;41.986;21.452;2023-09-30T11:48:34;98587.44;;;36.01;23.62
10700;BME280;5401;41.986;21.452;2023-09-30T11:51:03;98590.41;;;35.89;23.23
10700;BME280;5401;41.986;21.452;2023-09-30T11:53:31;98594.63;;;35.80;23.28
10700;BME280;5401;41.986;21.452;2023-09-30T11:55:59;98589.28;;;35.71;23.11
10700;BME280;5401;41.986;21.452;2023-09-30T11:58:29;98590.97;;;35.76;23.38
10700;BME280;5401;41.986;21.452;2023-09-30T12:00:58;98577.25;;;35.67;23.13
10700;BME280;5401;41.986;21.452;2023-09-30T12:03:28;98580.91;;;35.53;23.12
10700;BME280;5401;41.986;21.452;2023-09-30T12:05:55;98591.69;;;35.54;23.76
10700;BME280;5401;41.986;21.452;2023-09-30T12:08:23;98577.16;;;35.64;23.37
10700;BME280;5401;41.986;21.452;2023-09-30T12:10:50;98578.88;;;35.68;23.44
10700;BME280;5401;41.986;21.452;2023-09-30T12:13:18;98574.97;;;35.73;23.36
10700;BME280;5401;41.986;21.452;2023-09-30T12:15:46;98572.44;;;35.87;23.22
10700;BME280;5401;41.986;21.452;2023-09-30T12:18:15;98564.34;;;36.01;23.32
10700;BME280;5401;41.986;21.452;2023-09-30T12:20:46;98560.94;;;36.10;22.64
10700;BME280;5401;41.986;21.452;2023-09-30T12:23:13;98561.72;;;36.11;22.57
10700;BME280;5401;41.986;21.452;2023-09-30T12:25:41;98552.66;;;36.14;23.03
10700;BME280;5401;41.986;21.452;2023-09-30T12:28:08;98549.88;;;36.14;22.32
10700;BME280;5401;41.986;21.452;2023-09-30T12:30:36;98556.78;;;36.01;22.76
10700;BME280;5401;41.986;21.452;2023-09-30T12:33:06;98549.91;;;35.95;23.07
10700;BME280;5401;41.986;21.452;2023-09-30T12:35:33;98540.31;;;35.93;22.61
10700;BME280;5401;41.986;21.452;2023-09-30T12:38:03;98545.50;;;35.72;22.54
10700;BME280;5401;41.986;21.452;2023-09-30T12:40:30;98534.72;;;35.52;22.71
10700;BME280;5401;41.986;21.452;2023-09-30T12:42:58;98536.72;;;35.51;22.76
10700;BME280;5401;41.986;21.452;2023-09-30T12:45:29;98516.25;;;35.44;23.23
10700;BME280;5401;41.986;21.452;2023-09-30T12:47:56;98531.69;;;35.60;22.64
10700;BME280;5401;41.986;21.452;2023-09-30T12:50:24;98530.34;;;35.69;23.06
10700;BME280;5401;41.986;21.452;2023-09-30T12:52:51;98526.84;;;35.57;22.97
10700;BME280;5401;41.986;21.452;2023-09-30T12:55:20;98528.00;;;35.34;22.70
10700;BME280;5401;41.986;21.452;2023-09-30T12:57:49;98503.97;;;35.26;22.80
10700;BME280;5401;41.986;21.452;2023-09-30T13:00:16;98524.94;;;35.61;22.62
10700;BME280;5401;41.986;21.452;2023-09-30T13:02:45;98520.16;;;35.80;22.67
10700;BME280;5401;41.986;21.452;2023-09-30T13:05:12;98515.31;;;36.00;22.79
10700;BME280;5401;41.986;21.452;2023-09-30T13:07:39;98501.81;;;36.01;22.13
10700;BME280;5401;41.986;21.452;2023-09-30T13:10:08;98500.56;;;35.99;22.60
10700;BME280;5401;41.986;21.452;2023-09-30T13:12:37;98500.84;;;35.91;22.53
10700;BME280;5401;41.986;21.452;2023-09-30T13:15:05;98515.28;;;35.74;22.46